Time;durP1;ratioP1;P1;durP2;ratioP2;P2;SDS_P1;SDS_P2;PMS_P1;PMS_P2;Temp;Humidity;BMP_temperature;BMP_pressure;BME280_temperature;BME280_humidity;BME280_pressure;Samples;Min_cycle;Max_cycle;Signal;HPM_P1;HPM_P2
2023/06/01 00:01:44;;;;;;;3.52;1.95;;;18.00;51.60;;;;;;953580;149;27321;-74
2023/06/01 00:04:11;;;;;;;2.62;1.75;;;18.00;51.70;;;;;;953060;148;27285;-74
2023/06/01 00:06:37;;;;;;;4.90;1.90;;;18.00;52.40;;;;;;953640;148;27624;-74
2023/06/01 00:09:06;;;;;;;4.67;1.90;;;18.00;51.80;;;;;;953778;148;27391;-75
2023/06/01 00:11:30;;;;;;;1.50;1.40;;;18.00;51.90;;;;;;950760;147;27415;-75
2023/06/01 00:13:57;;;;;;;4.75;1.95;;;17.90;51.90;;;;;;950193;147;27287;-75
2023/06/01 00:16:23;;;;;;;2.00;1.77;;;17.90;52.00;;;;;;930949;149;27373;-75
2023/06/01 00:18:52;;;;;;;3.10;2.17;;;17.90;52.10;;;;;;927908;150;27319;-75
2023/06/01 00:21:16;;;;;;;2.50;1.75;;;17.80;52.20;;;;;;950120;147;27325;-75
2023/06/01 00:23:43;;;;;;;2.33;1.95;;;17.80;52.30;;;;;;950602;147;27334;-75
2023/06/01 00:26:10;;;;;;;3.22;1.90;;;17.70;52.40;;;;;;950593;147;27383;-75
2023/06/01 00:28:36;;;;;;;1.77;1.67;;;17.70;52.60;;;;;;951230;147;27316;-75
2023/06/01 00:31:03;;;;;;;1.60;1.45;;;17.60;52.60;;;;;;951536;147;27331;-75
2023/06/01 00:33:29;;;;;;;3.85;1.80;;;17.60;52.80;;;;;;951224;147;27335;-75
2023/06/01 00:35:56;;;;;;;3.22;1.65;;;17.60;53.00;;;;;;934261;150;27347;-75
2023/06/01 00:38:23;;;;;;;3.98;1.80;;;17.50;53.20;;;;;;951698;147;27455;-75
2023/06/01 00:40:52;;;;;;;3.35;1.90;;;17.50;53.20;;;;;;932119;149;27433;-75
2023/06/01 00:43:18;;;;;;;3.33;1.70;;;17.50;53.40;;;;;;926492;151;27475;-75
2023/06/01 00:45:45;;;;;;;1.87;1.55;;;17.40;53.50;;;;;;926895;150;27260;-75
2023/06/01 00:48:11;;;;;;;2.50;1.60;;;17.40;53.60;;;;;;951777;147;27346;-75
2023/06/01 00:50:38;;;;;;;6.30;1.95;;;17.30;53.80;;;;;;950864;147;27315;-75
2023/06/01 00:53:04;;;;;;;1.92;1.70;;;17.30;53.90;;;;;;948623;147;27407;-75
2023/06/01 00:55:31;;;;;;;3.15;2.10;;;17.30;54.00;;;;;;942386;149;27669;-75
2023/06/01 00:57:58;;;;;;;2.42;2.08;;;17.20;54.10;;;;;;942659;149;27440;-75
2023/06/01 01:00:24;;;;;;;2.55;1.70;;;17.20;54.20;;;;;;942966;149;27428;-75
2023/06/01 01:02:51;;;;;;;2.40;1.92;;;17.10;54.40;;;;;;942151;149;27455;-75
2023/06/01 01:05:19;;;;;;;3.12;2.47;;;17.10;54.50;;;;;;943026;149;27446;-75
2023/06/01 01:07:47;;;;;;;2.05;1.90;;;17.10;54.70;;;;;;943084;149;27412;-75
2023/06/01 01:10:26;;;;;;;3.05;2.25;;;17.00;54.80;;;;;;941886;148;27881;-75
2023/06/01 01:12:55;;;;;;;2.60;1.67;;;17.00;54.80;;;;;;942763;148;27357;-75
2023/06/01 01:15:24;;;;;;;4.17;1.90;;;16.90;55.00;;;;;;943163;147;27237;-75
2023/06/01 01:17:51;;;;;;;2.70;1.60;;;16.90;55.10;;;;;;942095;149;27391;-75
2023/06/01 01:20:23;;;;;;;2.67;2.33;;;16.80;55.20;;;;;;942705;149;27457;-75
2023/06/01 01:23:12;;;;;;;2.77;1.70;;;16.80;55.50;;;;;;940133;149;27274;-75
2023/06/01 01:25:56;;;;;;;2.25;1.90;;;16.80;55.40;;;;;;942564;149;27310;-75
2023/06/01 01:28:41;;;;;;;3.83;1.90;;;16.70;55.40;;;;;;951681;147;27382;-75
2023/06/01 01:31:07;;;;;;;3.83;1.85;;;16.70;55.40;;;;;;932127;150;27304;-75
2023/06/01 01:33:34;;;;;;;2.02;1.87;;;16.60;55.60;;;;;;934795;150;27383;-75
2023/06/01 01:36:00;;;;;;;2.02;1.72;;;16.60;55.80;;;;;;925980;151;27798;-75
2023/06/01 01:38:27;;;;;;;3.90;1.67;;;16.60;56.00;;;;;;951127;147;27350;-75
2023/06/01 01:40:53;;;;;;;3.70;2.02;;;16.50;56.10;;;;;;951170;147;27370;-75
2023/06/01 01:43:20;;;;;;;2.37;1.82;;;16.50;56.30;;;;;;951352;147;27312;-75
2023/06/01 01:45:47;;;;;;;5.90;2.12;;;16.50;56.50;;;;;;926868;150;27477;-75
2023/06/01 01:48:25;;;;;;;1.98;1.82;;;16.40;56.50;;;;;;942719;149;27339;-75
2023/06/01 01:50:51;;;;;;;2.33;1.90;;;16.40;56.60;;;;;;941899;149;27415;-75
2023/06/01 01:53:18;;;;;;;2.25;1.95;;;16.30;56.60;;;;;;941162;149;27341;-75
2023/06/01 01:55:44;;;;;;;3.30;1.65;;;16.30;56.80;;;;;;942239;148;27372;-75
2023/06/01 01:58:11;;;;;;;2.35;1.90;;;16.20;56.70;;;;;;942346;149;27349;-75
2023/06/01 02:00:38;;;;;;;2.90;2.20;;;16.20;56.90;;;;;;944467;148;27376;-75
2023/06/01 02:03:04;;;;;;;2.93;2.10;;;16.10;57.00;;;;;;946725;149;27406;-75
2023/06/01 02:05:31;;;;;;;2.17;1.97;;;16.10;57.20;;;;;;945565;151;27357;-75
2023/06/01 02:07:57;;;;;;;2.13;1.93;;;16.00;57.20;;;;;;956148;148;27380;-75
2023/06/01 02:10:24;;;;;;;2.50;1.80;;;16.00;57.40;;;;;;956326;147;27354;-75
2023/06/01 02:12:51;;;;;;;2.33;1.98;;;16.00;57.50;;;;;;942927;149;27386;-75
2023/06/01 02:15:17;;;;;;;3.45;2.10;;;15.90;57.60;;;;;;937539;150;27368;-75
2023/06/01 02:17:44;;;;;;;2.37;2.00;;;15.90;57.80;;;;;;961778;147;27314;-75
2023/06/01 02:20:11;;;;;;;2.27;2.07;;;15.90;57.90;;;;;;961677;147;27266;-75
2023/06/01 02:22:37;;;;;;;2.97;1.83;;;15.90;57.90;;;;;;937663;149;27308;-75
2023/06/01 02:25:04;;;;;;;5.63;2.23;;;15.90;58.10;;;;;;937999;149;27345;-75
2023/06/01 02:27:30;;;;;;;2.87;1.97;;;15.80;58.50;;;;;;946664;149;27360;-75
2023/06/01 02:29:57;;;;;;;4.40;2.00;;;15.80;58.10;;;;;;961923;149;27331;-75
2023/06/01 02:32:23;;;;;;;2.33;2.00;;;15.80;58.30;;;;;;962330;147;27343;-75
2023/06/01 02:34:50;;;;;;;2.60;2.00;;;15.80;58.40;;;;;;961540;147;27297;-75
2023/06/01 02:37:17;;;;;;;3.57;1.63;;;15.80;58.60;;;;;;961863;149;27346;-75
2023/06/01 02:39:43;;;;;;;2.37;1.90;;;15.70;58.60;;;;;;955904;149;27415;-75
2023/06/01 02:42:10;;;;;;;5.57;2.10;;;15.70;58.70;;;;;;947316;151;27426;-75
2023/06/01 02:44:36;;;;;;;2.60;2.23;;;15.70;58.90;;;;;;944954;149;27310;-75
2023/06/01 02:47:03;;;;;;;4.10;1.85;;;15.70;58.90;;;;;;938176;149;27322;-73
2023/06/01 02:49:30;;;;;;;1.97;1.83;;;15.60;58.80;;;;;;954002;147;27371;-74
2023/06/01 02:51:56;;;;;;;1.92;1.70;;;15.60;59.00;;;;;;953339;149;27420;-75
2023/06/01 02:54:23;;;;;;;10.90;2.00;;;15.50;59.10;;;;;;951136;148;27348;-76
2023/06/01 02:56:49;;;;;;;3.70;1.97;;;15.60;59.30;;;;;;953765;148;27325;-76
2023/06/01 02:59:16;;;;;;;6.22;2.42;;;15.50;59.30;;;;;;954059;149;27391;-76
2023/06/01 03:01:43;;;;;;;2.80;1.87;;;15.50;59.50;;;;;;947650;148;27825;-76
2023/06/01 03:04:10;;;;;;;2.13;1.93;;;15.50;59.70;;;;;;943332;148;27423;-76
2023/06/01 03:06:40;;;;;;;5.55;2.30;;;15.40;59.70;;;;;;943161;149;27446;-76
2023/06/01 03:09:05;;;;;;;2.43;1.83;;;15.40;59.80;;;;;;942971;148;27523;-76
2023/06/01 03:11:32;;;;;;;2.03;1.83;;;15.40;59.90;;;;;;943518;149;27377;-76
2023/06/01 03:13:58;;;;;;;3.13;2.00;;;15.30;60.00;;;;;;943220;148;27255;-76
2023/06/01 03:16:25;;;;;;;2.30;2.10;;;15.30;60.00;;;;;;943234;148;27781;-76
2023/06/01 03:18:52;;;;;;;2.47;1.70;;;15.30;60.10;;;;;;943094;148;27455;-76
2023/06/01 03:21:18;;;;;;;2.20;1.67;;;15.20;60.40;;;;;;942783;149;27365;-76
2023/06/01 03:23:45;;;;;;;2.10;1.90;;;15.20;60.60;;;;;;942865;149;27297;-76
2023/06/01 03:26:12;;;;;;;2.27;2.07;;;15.10;60.70;;;;;;943130;148;27419;-76
2023/06/01 03:28:38;;;;;;;2.80;2.22;;;15.10;60.90;;;;;;943503;149;27426;-76
2023/06/01 03:31:04;;;;;;;2.63;2.13;;;15.10;61.10;;;;;;943362;148;27450;-76
2023/06/01 03:33:31;;;;;;;3.77;2.10;;;15.10;61.20;;;;;;943653;148;27354;-76
2023/06/01 03:35:58;;;;;;;2.90;2.13;;;15.00;61.40;;;;;;942254;148;27366;-76
2023/06/01 03:38:24;;;;;;;5.13;1.90;;;15.00;61.50;;;;;;942964;148;27322;-76
2023/06/01 03:40:51;;;;;;;2.20;1.97;;;15.00;61.60;;;;;;943080;149;27382;-76
2023/06/01 03:43:17;;;;;;;3.87;2.20;;;15.00;62.50;;;;;;943258;148;27346;-76
2023/06/01 03:45:44;;;;;;;2.23;1.97;;;15.00;61.80;;;;;;942475;149;27459;-76
2023/06/01 03:48:11;;;;;;;2.77;2.37;;;15.00;62.10;;;;;;943018;149;27310;-76
2023/06/01 03:50:37;;;;;;;2.17;1.80;;;15.00;62.10;;;;;;943141;149;27352;-76
2023/06/01 03:53:04;;;;;;;2.63;2.17;;;15.00;62.30;;;;;;943738;149;27461;-76
2023/06/01 03:55:30;;;;;;;2.10;1.90;;;15.00;62.50;;;;;;942686;149;27353;-76
2023/06/01 03:57:57;;;;;;;3.13;2.10;;;15.00;62.50;;;;;;944488;148;27337;-76
2023/06/01 04:00:24;;;;;;;3.87;2.07;;;15.10;62.60;;;;;;943685;149;27753;-76
2023/06/01 04:02:56;;;;;;;3.23;1.93;;;15.10;62.60;;;;;;942668;148;27568;-76
2023/06/01 04:05:23;;;;;;;3.63;2.23;;;15.10;62.60;;;;;;941747;148;27384;-76
2023/06/01 04:07:49;;;;;;;1.98;1.80;;;15.10;62.50;;;;;;942602;149;27470;-76
2023/06/01 04:10:16;;;;;;;2.47;2.13;;;15.20;62.70;;;;;;943197;148;27314;-76
2023/06/01 04:12:43;;;;;;;4.27;2.03;;;15.20;62.80;;;;;;944209;148;27447;-76
2023/06/01 04:15:09;;;;;;;2.23;2.03;;;15.20;62.90;;;;;;942066;149;27469;-76
2023/06/01 04:17:38;;;;;;;3.00;2.17;;;15.30;62.90;;;;;;942409;149;27337;-76
2023/06/01 04:20:06;;;;;;;2.37;2.17;;;15.30;63.20;;;;;;942197;148;27338;-76
2023/06/01 04:22:32;;;;;;;2.97;2.23;;;15.40;63.00;;;;;;942649;148;27404;-76
2023/06/01 04:24:58;;;;;;;2.90;2.07;;;15.40;62.90;;;;;;942913;148;27393;-76
2023/06/01 04:27:26;;;;;;;4.17;2.17;;;15.50;63.00;;;;;;943102;148;27468;-76
2023/06/01 04:29:53;;;;;;;2.37;2.10;;;15.60;63.00;;;;;;943064;149;27364;-76
2023/06/01 04:32:21;;;;;;;2.93;2.07;;;15.60;63.00;;;;;;942612;148;27348;-76
2023/06/01 04:34:45;;;;;;;2.67;1.97;;;15.70;62.90;;;;;;943590;149;27457;-76
2023/06/01 04:37:12;;;;;;;2.53;2.10;;;15.80;62.90;;;;;;943314;148;27479;-76
2023/06/01 04:39:38;;;;;;;4.90;2.33;;;15.90;62.90;;;;;;943410;149;27802;-76
2023/06/01 04:42:04;;;;;;;1.93;1.80;;;16.00;62.90;;;;;;942926;149;27295;-76
2023/06/01 04:44:32;;;;;;;2.60;1.93;;;16.00;62.80;;;;;;943144;149;27773;-76
2023/06/01 04:47:03;;;;;;;3.20;2.30;;;16.20;62.90;;;;;;943184;149;27368;-76
2023/06/01 04:49:25;;;;;;;2.47;2.15;;;16.20;62.80;;;;;;942600;149;27318;-76
2023/06/01 04:51:51;;;;;;;4.87;2.00;;;16.30;63.50;;;;;;942672;148;27394;-76
2023/06/01 04:54:18;;;;;;;2.20;2.00;;;16.50;62.80;;;;;;943706;149;27419;-76
2023/06/01 04:56:44;;;;;;;2.75;1.92;;;16.70;63.30;;;;;;942465;148;27478;-76
2023/06/01 04:59:11;;;;;;;1.87;1.67;;;17.00;63.80;;;;;;943376;148;27366;-76
2023/06/01 05:01:38;;;;;;;2.37;2.08;;;17.40;64.60;;;;;;942283;148;27282;-76
2023/06/01 05:04:04;;;;;;;2.62;1.87;;;17.90;65.10;;;;;;953257;148;27371;-76
2023/06/01 05:06:30;;;;;;;2.77;1.85;;;18.50;65.50;;;;;;953902;147;27316;-76
2023/06/01 05:08:58;;;;;;;2.00;1.77;;;19.30;65.50;;;;;;953171;147;27343;-76
2023/06/01 05:11:24;;;;;;;2.83;1.90;;;20.10;64.90;;;;;;953294;148;27395;-76
2023/06/01 05:13:52;;;;;;;2.52;1.70;;;21.00;63.80;;;;;;953888;148;27316;-76
2023/06/01 05:16:17;;;;;;;3.55;1.60;;;21.90;62.60;;;;;;953388;148;27398;-76
2023/06/01 05:18:43;;;;;;;1.80;1.70;;;22.70;61.10;;;;;;954132;148;27426;-76
2023/06/01 05:21:10;;;;;;;2.12;1.70;;;23.60;59.80;;;;;;953861;147;27355;-77
2023/06/01 05:23:36;;;;;;;2.83;2.02;;;24.40;58.80;;;;;;953470;147;27322;-77
2023/06/01 05:26:03;;;;;;;2.90;2.10;;;25.30;58.00;;;;;;953656;148;27328;-77
2023/06/01 05:28:30;;;;;;;2.27;2.02;;;26.10;56.70;;;;;;954301;149;27602;-77
2023/06/01 05:30:56;;;;;;;2.72;1.87;;;27.00;55.60;;;;;;951308;148;27463;-77
2023/06/01 05:33:23;;;;;;;2.37;1.92;;;27.80;54.00;;;;;;953436;148;27390;-77
2023/06/01 05:35:49;;;;;;;4.65;2.40;;;28.50;53.30;;;;;;953799;148;27301;-77
2023/06/01 05:38:16;;;;;;;3.02;1.92;;;29.20;52.30;;;;;;953863;147;27366;-77
2023/06/01 05:40:43;;;;;;;1.92;1.77;;;29.80;51.20;;;;;;953713;148;27468;-77
2023/06/01 05:43:09;;;;;;;2.40;2.20;;;30.40;50.00;;;;;;954026;148;27400;-77
2023/06/01 05:45:36;;;;;;;2.87;2.22;;;30.90;48.80;;;;;;953423;147;27306;-77
2023/06/01 05:48:02;;;;;;;2.87;2.10;;;31.30;47.90;;;;;;954356;148;27329;-77
2023/06/01 05:50:29;;;;;;;3.12;2.33;;;31.70;47.50;;;;;;955567;147;27320;-76
2023/06/01 05:52:55;;;;;;;2.67;2.35;;;32.10;46.70;;;;;;937337;149;27455;-76
2023/06/01 05:55:22;;;;;;;5.92;2.75;;;32.50;46.20;;;;;;960573;147;27332;-76
2023/06/01 05:57:49;;;;;;;3.33;2.85;;;32.90;45.50;;;;;;956365;148;27291;-76
2023/06/01 06:00:16;;;;;;;2.92;2.52;;;33.20;44.50;;;;;;947474;151;27416;-76
2023/06/01 06:02:45;;;;;;;3.30;2.90;;;33.40;43.90;;;;;;946975;151;27369;-76
2023/06/01 06:05:11;;;;;;;2.92;2.30;;;33.70;43.30;;;;;;947300;151;27333;-76
2023/06/01 06:07:38;;;;;;;4.28;2.45;;;34.00;43.00;;;;;;947280;151;26357;-76
2023/06/01 06:10:05;;;;;;;2.95;2.30;;;34.20;42.30;;;;;;947128;148;26273;-76
2023/06/01 06:12:31;;;;;;;3.52;2.20;;;34.40;41.90;;;;;;947721;151;26267;-76
2023/06/01 06:14:58;;;;;;;3.42;2.45;;;34.60;41.50;;;;;;947318;148;26686;-76
2023/06/01 06:17:24;;;;;;;3.95;2.52;;;34.90;41.20;;;;;;947456;151;26253;-76
2023/06/01 06:19:51;;;;;;;2.60;2.10;;;35.20;40.90;;;;;;947495;151;26346;-76
2023/06/01 06:22:18;;;;;;;4.40;2.90;;;35.40;40.20;;;;;;947155;151;26210;-76
2023/06/01 06:24:44;;;;;;;3.98;2.67;;;35.70;39.70;;;;;;947174;150;26342;-76
2023/06/01 06:27:11;;;;;;;2.62;2.17;;;35.90;39.60;;;;;;947416;151;26229;-76
2023/06/01 06:29:37;;;;;;;4.92;2.37;;;36.20;39.20;;;;;;947509;151;26262;-76
2023/06/01 06:32:04;;;;;;;2.02;1.92;;;36.50;38.90;;;;;;947018;148;26322;-76
2023/06/01 06:34:35;;;;;;;3.37;2.42;;;36.80;38.50;;;;;;947454;151;26277;-76
2023/06/01 06:36:57;;;;;;;3.40;2.47;;;37.20;38.10;;;;;;946749;151;26257;-76
2023/06/01 06:39:24;;;;;;;3.22;2.30;;;37.50;37.70;;;;;;945555;148;26233;-76
2023/06/01 06:41:50;;;;;;;2.22;2.00;;;37.90;37.20;;;;;;945788;150;26334;-76
2023/06/01 06:44:17;;;;;;;2.08;1.87;;;38.20;36.80;;;;;;945810;150;26353;-76
2023/06/01 06:46:43;;;;;;;2.50;1.70;;;38.50;36.50;;;;;;946530;151;26351;-76
2023/06/01 06:49:10;;;;;;;3.58;2.25;;;38.80;36.00;;;;;;949741;149;26521;-76
2023/06/01 06:51:36;;;;;;;2.50;2.25;;;39.20;35.70;;;;;;948216;149;26313;-76
2023/06/01 06:54:05;;;;;;;8.55;1.98;;;39.50;35.20;;;;;;956137;148;26209;-76
2023/06/01 06:56:30;;;;;;;2.33;2.12;;;39.80;34.70;;;;;;938034;149;26263;-76
2023/06/01 06:58:56;;;;;;;1.90;1.70;;;40.20;33.60;;;;;;937403;149;26158;-76
2023/06/01 07:01:25;;;;;;;3.65;1.77;;;40.50;33.80;;;;;;938477;149;26278;-76
2023/06/01 07:03:49;;;;;;;3.00;1.52;;;40.70;33.30;;;;;;946773;148;26268;-76
2023/06/01 07:06:16;;;;;;;1.52;1.42;;;41.10;33.00;;;;;;945556;149;26267;-76
2023/06/01 07:08:43;;;;;;;2.67;1.45;;;41.30;32.60;;;;;;937940;150;27432;-76
2023/06/01 07:11:09;;;;;;;1.65;1.55;;;41.60;32.10;;;;;;961973;147;26299;-76
2023/06/01 07:13:36;;;;;;;1.62;1.52;;;41.80;31.60;;;;;;963975;148;26178;-74
2023/06/01 07:16:05;;;;;;;1.65;1.55;;;42.10;31.20;;;;;;963288;147;26359;-74
2023/06/01 07:18:32;;;;;;;1.52;1.42;;;42.30;30.90;;;;;;962758;148;26265;-74
2023/06/01 07:20:59;;;;;;;1.65;1.40;;;42.50;30.30;;;;;;961103;148;26166;-74
2023/06/01 07:23:26;;;;;;;2.30;1.70;;;42.60;30.20;;;;;;962758;147;26190;-74
2023/06/01 07:25:52;;;;;;;1.95;1.70;;;42.80;30.00;;;;;;961432;147;26213;-74
2023/06/01 07:28:18;;;;;;;1.52;1.30;;;43.00;29.90;;;;;;963697;147;26343;-74
2023/06/01 07:30:45;;;;;;;1.50;1.40;;;43.10;29.70;;;;;;962383;147;26323;-74
2023/06/01 07:33:12;;;;;;;2.37;1.47;;;43.20;29.20;;;;;;962893;148;26233;-74
2023/06/01 07:35:38;;;;;;;2.02;1.45;;;43.30;29.10;;;;;;958823;147;26317;-74
2023/06/01 07:38:06;;;;;;;1.82;1.37;;;43.40;28.90;;;;;;962642;147;26202;-74
2023/06/01 07:40:31;;;;;;;2.02;1.60;;;43.40;28.80;;;;;;963494;147;26331;-74
2023/06/01 07:42:58;;;;;;;2.35;1.27;;;43.60;28.80;;;;;;962673;148;26323;-74
2023/06/01 07:45:25;;;;;;;1.75;1.35;;;43.70;28.50;;;;;;961936;146;26193;-74
2023/06/01 07:47:53;;;;;;;1.45;1.25;;;43.80;28.50;;;;;;963235;147;26216;-74
2023/06/01 07:50:19;;;;;;;2.80;1.35;;;43.90;28.30;;;;;;962150;147;26226;-73
2023/06/01 07:52:45;;;;;;;3.22;1.27;;;44.10;28.10;;;;;;961925;146;26346;-74
2023/06/01 07:55:11;;;;;;;2.05;1.30;;;44.10;27.80;;;;;;963272;147;26330;-74
2023/06/01 07:57:38;;;;;;;3.22;1.30;;;44.20;27.70;;;;;;961947;148;26245;-74
2023/06/01 08:00:09;;;;;;;1.47;1.17;;;44.30;27.30;;;;;;962451;147;26322;-74
2023/06/01 08:02:31;;;;;;;1.95;1.20;;;44.30;27.40;;;;;;959840;147;26257;-74
2023/06/01 08:04:59;;;;;;;1.75;1.17;;;44.30;27.30;;;;;;963543;147;26233;-74
2023/06/01 08:07:27;;;;;;;1.42;1.32;;;44.30;27.20;;;;;;964602;145;26275;-74
2023/06/01 08:09:52;;;;;;;2.08;1.27;;;44.30;27.20;;;;;;964881;145;26310;-74
2023/06/01 08:12:17;;;;;;;2.52;1.67;;;44.40;26.90;;;;;;965242;145;26335;-74
2023/06/01 08:14:44;;;;;;;2.08;1.27;;;44.50;27.00;;;;;;965526;145;26194;-74
2023/06/01 08:17:11;;;;;;;1.40;1.30;;;44.50;27.00;;;;;;965006;145;26198;-74
2023/06/01 08:19:37;;;;;;;1.45;1.35;;;44.70;26.90;;;;;;965586;148;26157;-74
2023/06/01 08:22:06;;;;;;;2.15;1.50;;;44.80;26.60;;;;;;965301;145;26265;-74
2023/06/01 08:24:34;;;;;;;2.58;1.37;;;44.90;26.70;;;;;;956688;147;26333;-74
2023/06/01 08:27:00;;;;;;;1.17;1.02;;;45.10;26.30;;;;;;937936;150;26221;-74
2023/06/01 08:29:26;;;;;;;1.67;1.35;;;45.20;26.20;;;;;;932128;150;26320;-74
2023/06/01 08:31:53;;;;;;;1.65;1.50;;;45.20;26.00;;;;;;956560;149;26242;-74
2023/06/01 08:34:20;;;;;;;3.12;1.32;;;45.30;26.00;;;;;;956309;147;26201;-74
2023/06/01 08:36:46;;;;;;;1.60;1.50;;;45.30;26.00;;;;;;956261;147;26201;-74
2023/06/01 08:39:22;;;;;;;1.77;1.15;;;45.30;25.90;;;;;;940494;150;26170;-74
2023/06/01 08:41:50;;;;;;;1.27;1.10;;;45.30;25.60;;;;;;932983;151;26251;-74
2023/06/01 08:44:17;;;;;;;2.37;1.27;;;45.20;25.50;;;;;;934620;150;26305;-74
2023/06/01 08:46:44;;;;;;;1.47;1.20;;;45.20;25.70;;;;;;933125;150;26362;-74
2023/06/01 08:49:10;;;;;;;2.75;1.50;;;45.10;25.90;;;;;;933306;150;26283;-75
2023/06/01 08:51:37;;;;;;;1.47;1.37;;;45.10;25.80;;;;;;937174;150;26261;-75
2023/06/01 08:54:03;;;;;;;1.57;1.47;;;45.20;25.90;;;;;;938954;150;26173;-74
2023/06/01 08:56:30;;;;;;;2.70;1.35;;;45.30;25.70;;;;;;949678;148;26284;-74
2023/06/01 08:58:56;;;;;;;1.50;1.30;;;45.40;25.60;;;;;;940094;150;26235;-75
2023/06/01 09:01:23;;;;;;;1.57;1.27;;;45.40;25.50;;;;;;933785;150;26887;-75
2023/06/01 09:03:50;;;;;;;2.65;1.40;;;45.50;25.40;;;;;;942176;150;26259;-75
2023/06/01 09:06:16;;;;;;;1.95;1.12;;;45.50;25.40;;;;;;941883;148;26281;-74
2023/06/01 09:08:43;;;;;;;3.00;1.42;;;45.60;25.20;;;;;;942665;148;26174;-75
2023/06/01 09:11:09;;;;;;;1.67;1.20;;;45.60;25.20;;;;;;942889;148;26310;-75
2023/06/01 09:13:38;;;;;;;1.80;1.27;;;45.60;25.00;;;;;;942794;148;26348;-75
2023/06/01 09:16:05;;;;;;;2.22;1.27;;;45.70;25.10;;;;;;942217;148;26305;-75
2023/06/01 09:18:32;;;;;;;1.55;1.45;;;45.80;24.90;;;;;;942134;148;26279;-75
2023/06/01 09:21:10;;;;;;;2.15;1.30;;;45.80;24.50;;;;;;942293;148;26236;-75
2023/06/01 09:23:38;;;;;;;1.72;1.20;;;45.80;24.40;;;;;;942247;148;26252;-75
2023/06/01 09:26:12;;;;;;;1.50;1.40;;;45.80;24.40;;;;;;937340;149;26249;-75
2023/06/01 09:29:00;;;;;;;2.35;1.40;;;45.80;24.40;;;;;;943373;149;26250;-75
2023/06/01 09:31:41;;;;;;;1.47;1.20;;;45.90;24.50;;;;;;941094;149;26419;-74
2023/06/01 09:34:08;;;;;;;1.40;1.30;;;45.80;24.30;;;;;;942996;149;26288;-74
2023/06/01 09:36:35;;;;;;;5.70;1.50;;;45.80;24.20;;;;;;943060;149;26319;-75
2023/06/01 09:39:04;;;;;;;1.40;1.30;;;45.60;24.00;;;;;;942707;149;26412;-75
2023/06/01 09:41:49;;;;;;;1.45;1.25;;;45.50;23.90;;;;;;941303;149;26347;-75
2023/06/01 09:44:15;;;;;;;1.72;1.57;;;45.20;23.70;;;;;;942669;149;26390;-75
2023/06/01 09:46:48;;;;;;;1.10;1.00;;;44.90;23.80;;;;;;940373;149;26361;-75
2023/06/01 09:49:24;;;;;;;1.55;1.30;;;44.50;23.90;;;;;;942782;149;26225;-75
2023/06/01 09:51:46;;;;;;;1.85;1.27;;;44.20;24.10;;;;;;941720;149;26448;-75
2023/06/01 09:54:22;;;;;;;2.40;1.60;;;43.80;24.30;;;;;;943188;149;26280;-75
2023/06/01 09:56:49;;;;;;;3.33;1.52;;;43.50;24.30;;;;;;943025;149;26190;-75
2023/06/01 09:59:15;;;;;;;3.80;1.30;;;43.20;24.20;;;;;;942687;149;26344;-75
2023/06/01 10:01:42;;;;;;;1.62;1.50;;;42.90;24.30;;;;;;943046;149;26245;-75
2023/06/01 10:04:08;;;;;;;1.98;1.17;;;42.50;24.40;;;;;;942371;149;26355;-74
2023/06/01 10:06:35;;;;;;;1.45;1.25;;;42.10;24.50;;;;;;938799;149;26266;-74
2023/06/01 10:09:02;;;;;;;1.87;1.40;;;41.80;24.70;;;;;;967862;145;26307;-75
2023/06/01 10:11:28;;;;;;;1.75;1.60;;;41.40;24.60;;;;;;967902;145;26210;-75
2023/06/01 10:13:55;;;;;;;1.77;1.37;;;41.10;24.80;;;;;;945366;149;26286;-75
2023/06/01 10:16:21;;;;;;;1.87;1.40;;;40.70;24.90;;;;;;944954;148;26270;-75
2023/06/01 10:18:48;;;;;;;2.65;1.92;;;40.40;24.90;;;;;;945451;148;26246;-75
2023/06/01 10:21:15;;;;;;;3.05;1.90;;;39.90;25.00;;;;;;924602;151;26348;-74
2023/06/01 10:23:41;;;;;;;1.25;1.15;;;39.50;24.90;;;;;;967910;145;26271;-74
2023/06/01 10:26:08;;;;;;;2.37;1.60;;;39.20;25.00;;;;;;945141;149;27396;-74
2023/06/01 10:28:34;;;;;;;1.65;1.55;;;38.70;25.10;;;;;;944894;149;26398;-75
2023/06/01 10:31:37;;;;;;;2.87;1.52;;;38.40;25.30;;;;;;928637;151;27474;-74
2023/06/01 10:34:01;;;;;;;2.47;1.52;;;38.00;25.40;;;;;;966360;145;27258;-74
2023/06/01 10:36:50;;;;;;;1.87;1.40;;;37.40;25.40;;;;;;968553;145;27271;-74
2023/06/01 10:39:25;;;;;;;1.70;1.42;;;37.00;25.60;;;;;;941583;149;27361;-74
2023/06/01 10:41:52;;;;;;;2.83;1.87;;;36.60;25.80;;;;;;944634;149;27483;-74
2023/06/01 10:44:39;;;;;;;1.65;1.55;;;36.20;26.10;;;;;;929283;151;27431;-74
2023/06/01 10:47:11;;;;;;;1.60;1.50;;;35.90;26.40;;;;;;920891;152;27446;-74
2023/06/01 10:49:50;;;;;;;1.60;1.50;;;35.60;26.60;;;;;;955318;145;27406;-74
2023/06/01 10:52:28;;;;;;;3.02;1.47;;;35.20;26.80;;;;;;968431;145;27327;-76
2023/06/01 10:54:55;;;;;;;7.12;1.30;;;35.00;27.00;;;;;;967938;145;27289;-76
2023/06/01 10:57:21;;;;;;;2.12;1.52;;;34.70;27.00;;;;;;965360;145;27307;-76
2023/06/01 11:00:26;;;;;;;1.70;1.60;;;34.60;27.30;;;;;;932177;151;27393;-76
2023/06/01 11:03:00;;;;;;;2.58;1.47;;;34.30;27.50;;;;;;967353;145;27291;-76
2023/06/01 11:05:48;;;;;;;2.92;1.60;;;34.00;27.70;;;;;;968264;145;27312;-75
2023/06/01 11:08:17;;;;;;;1.80;1.50;;;33.70;27.70;;;;;;942562;148;27566;-76
2023/06/01 11:10:53;;;;;;;1.52;1.42;;;33.40;27.70;;;;;;928377;151;27357;-76
2023/06/01 11:13:21;;;;;;;2.33;1.45;;;33.10;27.80;;;;;;968175;145;27371;-76
2023/06/01 11:16:04;;;;;;;2.75;1.70;;;32.80;28.10;;;;;;968125;145;27324;-76
2023/06/01 11:18:43;;;;;;;1.77;1.35;;;32.60;28.30;;;;;;968069;145;27426;-76
2023/06/01 11:21:10;;;;;;;3.70;1.62;;;32.40;28.40;;;;;;944688;149;27431;-76
2023/06/01 11:23:36;;;;;;;1.92;1.72;;;32.10;28.40;;;;;;967173;145;27378;-76
2023/06/01 11:26:03;;;;;;;2.02;1.30;;;31.90;28.40;;;;;;944592;149;27368;-76
2023/06/01 11:28:31;;;;;;;1.70;1.45;;;31.80;28.90;;;;;;944525;148;27384;-76
2023/06/01 11:30:56;;;;;;;2.37;1.50;;;31.70;29.10;;;;;;946135;151;27318;-76
2023/06/01 11:33:23;;;;;;;1.65;1.50;;;31.60;29.30;;;;;;944597;151;27381;-76
2023/06/01 11:35:49;;;;;;;1.95;1.65;;;31.50;29.40;;;;;;946185;151;27430;-76
2023/06/01 11:38:16;;;;;;;1.92;1.70;;;31.50;29.60;;;;;;944408;151;27324;-76
2023/06/01 11:40:42;;;;;;;2.37;1.35;;;31.50;29.70;;;;;;946209;151;27376;-76
2023/06/01 11:43:09;;;;;;;3.67;1.80;;;31.40;29.90;;;;;;941844;148;27253;-76
2023/06/01 11:45:35;;;;;;;1.75;1.50;;;31.40;29.90;;;;;;946066;148;27394;-76
2023/06/01 11:48:02;;;;;;;2.27;1.72;;;31.40;30.00;;;;;;945571;151;27426;-76
2023/06/01 11:50:29;;;;;;;1.95;1.30;;;31.30;29.90;;;;;;942041;149;27326;-76
2023/06/01 11:52:55;;;;;;;4.85;1.50;;;31.30;30.00;;;;;;968378;145;27359;-76
2023/06/01 11:55:22;;;;;;;3.27;1.50;;;31.20;30.00;;;;;;942507;149;27726;-76
2023/06/01 11:57:48;;;;;;;1.80;1.60;;;31.20;30.20;;;;;;944491;148;27376;-76
2023/06/01 12:00:15;;;;;;;2.02;1.30;;;31.20;30.60;;;;;;944650;148;27454;-76
2023/06/01 12:02:42;;;;;;;2.22;1.17;;;31.20;30.60;;;;;;967267;145;27257;-76
2023/06/01 12:05:13;;;;;;;2.02;1.32;;;31.20;31.00;;;;;;968445;145;27248;-76
2023/06/01 12:07:46;;;;;;;1.57;1.25;;;31.20;30.60;;;;;;967008;145;27440;-76
2023/06/01 12:10:15;;;;;;;2.00;1.52;;;31.30;30.60;;;;;;948305;148;27416;-76
2023/06/01 12:12:39;;;;;;;3.92;1.17;;;31.30;30.90;;;;;;951235;147;27339;-76
2023/06/01 12:15:06;;;;;;;4.25;1.40;;;31.30;30.60;;;;;;967209;145;27269;-76
2023/06/01 12:17:51;;;;;;;1.50;1.40;;;31.30;30.30;;;;;;954421;147;27375;-76
2023/06/01 12:20:35;;;;;;;1.85;1.50;;;31.30;30.30;;;;;;966314;145;27419;-76
2023/06/01 12:23:13;;;;;;;3.45;1.35;;;31.30;30.30;;;;;;966107;148;27351;-76
2023/06/01 12:25:37;;;;;;;1.40;1.30;;;31.20;30.20;;;;;;948484;148;27800;-76
2023/06/01 12:28:04;;;;;;;2.30;1.77;;;31.20;30.30;;;;;;951613;148;27329;-76
2023/06/01 12:30:30;;;;;;;2.87;1.55;;;31.10;30.20;;;;;;952015;148;27337;-76
2023/06/01 12:32:57;;;;;;;1.42;1.30;;;31.10;30.10;;;;;;949013;148;27346;-76
2023/06/01 12:35:24;;;;;;;3.25;1.47;;;31.10;30.20;;;;;;951780;148;27418;-76
2023/06/01 12:38:11;;;;;;;1.37;1.27;;;31.10;30.00;;;;;;952025;148;27303;-76
2023/06/01 12:40:35;;;;;;;1.32;1.20;;;31.00;30.20;;;;;;955486;148;27792;-76
2023/06/01 12:43:02;;;;;;;1.82;1.45;;;31.00;30.40;;;;;;966239;148;27347;-76
2023/06/01 12:45:37;;;;;;;1.70;1.60;;;31.00;30.40;;;;;;968468;145;27398;-76
2023/06/01 12:48:04;;;;;;;1.42;1.32;;;31.00;30.60;;;;;;968445;145;27317;-76
2023/06/01 12:50:31;;;;;;;1.50;1.40;;;31.00;30.50;;;;;;968706;145;27391;-76
2023/06/01 12:52:57;;;;;;;3.02;1.60;;;31.00;30.60;;;;;;968524;145;27345;-76